Time;durP1;ratioP1;P1;durP2;ratioP2;P2;SDS_P1;SDS_P2;PMS_P1;PMS_P2;Temp;Humidity;BMP_temperature;BMP_pressure;BME280_temperature;BME280_humidity;BME280_pressure;Samples;Min_cycle;Max_cycle;Signal;HPM_P1;HPM_P2
2022/02/17 00:01:57;;;;;;;0.70;0.30;;;;;;;10.67;100.00;154100.19;5105251;28;20459;-78
2022/02/17 00:04:34;;;;;;;0.80;0.40;;;;;;;10.76;100.00;154123.53;5105369;28;20444;-79
2022/02/17 00:07:10;;;;;;;0.60;0.20;;;;;;;10.74;100.00;154118.34;5105703;28;20444;-78
2022/02/17 00:09:47;;;;;;;0.70;0.30;;;;;;;10.73;100.00;154115.75;5102681;28;20471;-78
2022/02/17 00:12:22;;;;;;;0.70;0.27;;;;;;;10.75;100.00;154119.66;5104421;28;20452;-79
2022/02/17 00:14:58;;;;;;;0.60;0.23;;;;;;;10.74;100.00;154118.34;5104896;28;20440;-79
2022/02/17 00:17:35;;;;;;;0.97;0.20;;;;;;;10.82;100.00;154139.06;5102698;28;20457;-78
2022/02/17 00:20:11;;;;;;;0.70;0.30;;;;;;;10.84;100.00;154144.25;5102722;28;20937;-78
2022/02/17 00:22:46;;;;;;;0.60;0.20;;;;;;;10.88;100.00;154154.56;5101992;28;20819;-78
2022/02/17 00:25:24;;;;;;;0.60;0.20;;;;;;;10.89;100.00;154157.19;5085427;28;20441;-79
2022/02/17 00:28:00;;;;;;;0.70;0.30;;;;;;;10.86;100.00;154149.41;5085651;28;20464;-79
2022/02/17 00:30:35;;;;;;;0.70;0.20;;;;;;;10.89;100.00;154157.19;5118572;28;20444;-79
2022/02/17 00:33:11;;;;;;;0.70;0.20;;;;;;;10.95;100.00;154172.75;5082617;28;20847;-78
2022/02/17 00:35:47;;;;;;;0.70;0.20;;;;;;;10.94;100.00;154170.13;5101358;28;20792;-78
2022/02/17 00:38:22;;;;;;;1.90;0.40;;;;;;;10.95;100.00;154172.75;5100069;28;20522;-78
2022/02/17 00:40:59;;;;;;;0.60;0.23;;;;;;;10.96;100.00;154175.31;5104786;28;20826;-79
2022/02/17 00:43:35;;;;;;;0.70;0.20;;;;;;;10.96;100.00;154174.06;5093980;28;20476;-78
2022/02/17 00:46:10;;;;;;;0.70;0.30;;;;;;;10.98;100.00;154179.22;5089020;28;20963;-78
2022/02/17 00:48:47;;;;;;;2.83;0.20;;;;;;;11.04;100.00;154193.47;5092219;28;20468;-78
2022/02/17 00:51:22;;;;;;;0.80;0.40;;;;;;;11.01;100.00;154188.25;5093153;28;20456;-78
2022/02/17 00:53:58;;;;;;;0.60;0.30;;;;;;;11.04;100.00;154193.47;5095655;28;20456;-79
2022/02/17 00:56:37;;;;;;;0.60;0.20;;;;;;;11.01;100.00;154187.00;5091421;28;20501;-78
2022/02/17 00:59:13;;;;;;;0.70;0.40;;;;;;;11.04;100.00;154193.47;5092347;28;20443;-78
2022/02/17 01:01:51;;;;;;;0.70;0.30;;;;;;;10.99;100.00;154183.09;5092696;28;20465;-79
2022/02/17 01:04:26;;;;;;;0.80;0.30;;;;;;;11.06;100.00;154199.94;5092426;28;20799;-78
2022/02/17 01:07:02;;;;;;;0.70;0.30;;;;;;;11.02;100.00;154190.84;5104134;28;20443;-78
2022/02/17 01:09:38;;;;;;;0.70;0.20;;;;;;;11.01;100.00;154188.25;5108273;28;20560;-78
2022/02/17 01:12:15;;;;;;;0.63;0.20;;;;;;;10.98;100.00;154180.53;5109118;28;20802;-78
2022/02/17 01:14:51;;;;;;;1.00;0.30;;;;;;;10.96;100.00;154175.31;5093707;28;20444;-79
2022/02/17 01:17:26;;;;;;;0.90;0.40;;;;;;;10.96;100.00;154175.31;5107539;28;20452;-79
2022/02/17 01:20:02;;;;;;;0.60;0.20;;;;;;;10.91;100.00;154162.34;5099898;28;20444;-78
2022/02/17 01:22:40;;;;;;;0.80;0.30;;;;;;;10.93;100.00;154166.28;5122485;27;20787;-79
2022/02/17 01:25:16;;;;;;;0.90;0.30;;;;;;;10.85;100.00;154145.53;5088581;28;20441;-78
2022/02/17 01:27:53;;;;;;;0.60;0.20;;;;;;;10.82;100.00;154139.06;5111075;28;20550;-78
2022/02/17 01:30:29;;;;;;;0.60;0.23;;;;;;;10.79;100.00;154131.28;5110599;27;20441;-79
2022/02/17 01:33:06;;;;;;;0.90;0.40;;;;;;;10.77;100.00;154124.81;5093934;28;20954;-79
2022/02/17 01:35:46;;;;;;;0.70;0.20;;;;;;;10.75;100.00;154120.91;5089158;28;20440;-78
2022/02/17 01:38:22;;;;;;;0.70;0.30;;;;;;;10.73;100.00;154115.75;5091443;28;20449;-78
2022/02/17 01:40:57;;;;;;;0.70;0.30;;;;;;;10.73;100.00;154114.44;5105302;28;20455;-79
2022/02/17 01:43:37;;;;;;;0.67;0.30;;;;;;;10.73;100.00;154115.75;5107231;28;20475;-78
2022/02/17 01:46:12;;;;;;;0.60;0.20;;;;;;;10.72;100.00;154113.13;5087559;28;20459;-78
2022/02/17 01:48:48;;;;;;;0.73;0.30;;;;;;;10.64;100.00;154092.47;5093517;28;20467;-78
2022/02/17 01:51:24;;;;;;;0.60;0.20;;;;;;;10.64;100.00;154091.16;5091251;28;20950;-78
2022/02/17 01:54:05;;;;;;;0.50;0.20;;;;;;;10.65;100.00;154095.03;5093876;28;20526;-78
2022/02/17 01:56:40;;;;;;;0.70;0.20;;;;;;;10.63;100.00;154089.84;5107283;28;20442;-78
2022/02/17 01:59:19;;;;;;;0.60;0.20;;;;;;;10.65;100.00;154095.03;5104818;28;20946;-78
2022/02/17 02:02:00;;;;;;;0.60;0.20;;;;;;;10.65;100.00;154095.03;5093347;28;20444;-78
2022/02/17 02:04:35;;;;;;;0.70;0.30;;;;;;;10.60;100.00;154080.78;5089314;28;20487;-78
2022/02/17 02:07:13;;;;;;;0.60;0.20;;;;;;;10.61;100.00;154084.69;5084769;28;20468;-78
2022/02/17 02:09:50;;;;;;;0.70;0.30;;;;;;;10.54;100.00;154065.28;5086489;28;20456;-78
2022/02/17 02:12:33;;;;;;;0.60;0.20;;;;;;;10.56;100.00;154071.75;5108568;27;20440;-79
2022/02/17 02:15:14;;;;;;;0.93;0.27;;;;;;;10.53;100.00;154062.66;5089260;28;20439;-79
2022/02/17 02:17:50;;;;;;;1.00;0.50;;;;;;;10.55;100.00;154069.13;5093078;28;20455;-79
2022/02/17 02:20:27;;;;;;;0.50;0.20;;;;;;;10.53;100.00;154062.66;5084456;28;20440;-78
2022/02/17 02:23:05;;;;;;;0.80;0.30;;;;;;;10.49;100.00;154053.59;5087338;28;22576;-78
2022/02/17 02:25:45;;;;;;;0.70;0.30;;;;;;;10.49;100.00;154053.59;5107160;28;20818;-79
2022/02/17 02:28:23;;;;;;;0.70;0.30;;;;;;;10.48;100.00;154051.03;5102687;28;20468;-78
2022/02/17 02:30:59;;;;;;;0.90;0.40;;;;;;;10.46;100.00;154044.56;5107726;28;20444;-78
2022/02/17 02:33:35;;;;;;;0.70;0.20;;;;;;;10.48;100.00;154051.03;5081332;28;20463;-78
2022/02/17 02:36:13;;;;;;;0.67;0.27;;;;;;;10.48;100.00;154049.72;5107813;28;20436;-78
2022/02/17 02:38:50;;;;;;;0.50;0.20;;;;;;;10.45;100.00;154041.94;5089484;28;20993;-79
2022/02/17 02:41:28;;;;;;;0.60;0.30;;;;;;;10.44;100.00;154039.34;5092788;28;20453;-78
2022/02/17 02:44:04;;;;;;;0.70;0.20;;;;;;;10.42;100.00;154035.47;5104490;28;20487;-78
2022/02/17 02:46:40;;;;;;;2.00;0.37;;;;;;;10.39;100.00;154027.69;5086412;28;20457;-79
2022/02/17 02:49:16;;;;;;;1.00;0.30;;;;;;;10.35;100.00;154017.38;5104931;28;20464;-78
2022/02/17 02:51:53;;;;;;;0.70;0.30;;;;;;;10.33;100.00;154012.16;5090988;28;20448;-79
2022/02/17 02:54:42;;;;;;;0.60;0.20;;;;;;;10.33;100.00;154012.16;5089648;28;20792;-79
2022/02/17 02:57:18;;;;;;;0.70;0.30;;;;;;;10.33;100.00;154012.16;5090947;28;21004;-79
2022/02/17 02:59:53;;;;;;;0.60;0.20;;;;;;;10.33;100.00;154013.47;5102673;28;20443;-79
2022/02/17 03:02:32;;;;;;;0.60;0.30;;;;;;;10.29;100.00;154001.81;5091312;28;20448;-78
2022/02/17 03:05:09;;;;;;;1.00;0.37;;;;;;;10.29;100.00;154003.13;5083990;28;20935;-78
2022/02/17 03:07:47;;;;;;;0.60;0.23;;;;;;;10.26;100.00;153994.03;5088994;28;20448;-79
2022/02/17 03:10:23;;;;;;;0.70;0.20;;;;;;;10.25;100.00;153991.44;5088335;28;20487;-78
2022/02/17 03:12:59;;;;;;;0.90;0.30;;;;;;;10.27;100.00;153997.91;5086037;28;20823;-78
2022/02/17 03:15:36;;;;;;;0.70;0.30;;;;;;;10.28;100.00;153999.22;5102219;28;20472;-78
2022/02/17 03:18:12;;;;;;;0.80;0.30;;;;;;;10.34;100.00;154016.06;5090198;28;20449;-78
2022/02/17 03:20:47;;;;;;;0.60;0.20;;;;;;;10.28;100.00;153999.22;5088769;28;20935;-79
2022/02/17 03:23:32;;;;;;;0.80;0.20;;;;;;;10.27;100.00;153997.91;5091464;28;20440;-79
2022/02/17 03:26:14;;;;;;;0.60;0.30;;;;;;;10.31;100.00;154007.00;5089793;28;20840;-79
2022/02/17 03:28:49;;;;;;;0.57;0.20;;;;;;;10.28;100.00;153999.22;5088195;28;21046;-79
2022/02/17 03:31:25;;;;;;;0.60;0.20;;;;;;;10.28;100.00;153999.22;5104237;28;20455;-78
2022/02/17 03:34:13;;;;;;;0.70;0.23;;;;;;;10.33;100.00;154012.16;5090426;28;20535;-79
2022/02/17 03:36:49;;;;;;;0.67;0.27;;;;;;;10.30;100.00;154004.38;5088862;28;20455;-79
2022/02/17 03:39:26;;;;;;;0.70;0.20;;;;;;;10.29;100.00;154003.13;5087651;28;20447;-79
2022/02/17 03:42:08;;;;;;;0.60;0.20;;;;;;;10.29;100.00;154001.81;5119733;27;20484;-79
2022/02/17 03:44:45;;;;;;;0.60;0.20;;;;;;;10.28;100.00;154000.50;5082985;28;20453;-79
2022/02/17 03:47:29;;;;;;;0.50;0.20;;;;;;;10.27;100.00;153996.66;5083012;28;20444;-79
2022/02/17 03:50:16;;;;;;;0.60;0.30;;;;;;;10.29;100.00;154001.81;5092255;28;20460;-78
2022/02/17 03:53:00;;;;;;;0.60;0.20;;;;;;;10.29;100.00;154001.81;5100815;28;20440;-79
2022/02/17 03:55:41;;;;;;;0.60;0.20;;;;;;;10.23;100.00;153987.56;5073920;28;20541;-78
2022/02/17 04:01:08;;;;;;;2.70;0.30;;;;;;;10.24;100.00;153990.19;5101450;28;20455;-79
2022/02/17 04:03:49;;;;;;;0.80;0.30;;;;;;;10.29;100.00;154001.81;5084624;28;20449;-79
2022/02/17 04:06:26;;;;;;;0.80;0.20;;;;;;;10.27;100.00;153997.91;5087700;28;20452;-79
2022/02/17 04:09:02;;;;;;;0.60;0.20;;;;;;;10.25;100.00;153991.44;5086938;28;20819;-79
2022/02/17 04:11:39;;;;;;;0.60;0.20;;;;;;;10.30;100.00;154004.38;5108691;28;20479;-78
2022/02/17 04:14:15;;;;;;;0.70;0.20;;;;;;;10.39;100.00;154029.00;5091958;28;20857;-78
2022/02/17 04:16:59;;;;;;;1.30;0.20;;;;;;;10.36;100.00;154019.94;5088091;28;20535;-78
2022/02/17 04:20:02;;;;;;;0.50;0.20;;;;;;;10.37;100.00;154022.53;5092095;28;20857;-78
2022/02/17 04:23:10;;;;;;;1.00;0.20;;;;;;;10.36;100.00;154021.22;5079308;28;20762;-78
2022/02/17 04:25:47;;;;;;;0.70;0.30;;;;;;;10.37;100.00;154022.53;5109170;28;20444;-78
2022/02/17 04:28:33;;;;;;;0.50;0.20;;;;;;;10.42;100.00;154035.47;5095109;28;20542;-78
2022/02/17 04:31:10;;;;;;;0.50;0.20;;;;;;;10.43;100.00;154036.78;5092675;28;20472;-78
2022/02/17 04:33:49;;;;;;;0.60;0.30;;;;;;;10.44;100.00;154040.63;5094347;28;20527;-78
2022/02/17 04:36:33;;;;;;;1.10;0.30;;;;;;;10.47;100.00;154048.41;5085690;28;20452;-78
2022/02/17 04:39:09;;;;;;;0.70;0.20;;;;;;;10.48;100.00;154051.03;5094294;28;20444;-78
2022/02/17 04:44:45;;;;;;;1.00;0.40;;;;;;;10.40;100.00;154030.31;5092157;27;20444;-78
2022/02/17 04:47:21;;;;;;;0.70;0.20;;;;;;;10.43;100.00;154036.78;5089042;28;20547;-78
2022/02/17 04:49:57;;;;;;;1.00;0.27;;;;;;;10.41;100.00;154032.88;5093060;28;20463;-78
2022/02/17 04:52:32;;;;;;;0.67;0.20;;;;;;;10.45;100.00;154043.25;5107817;28;20839;-79
2022/02/17 04:55:09;;;;;;;0.60;0.30;;;;;;;10.43;100.00;154038.09;5109467;28;21044;-79
2022/02/17 04:57:44;;;;;;;0.60;0.20;;;;;;;10.41;100.00;154032.88;5090865;28;21280;-79
2022/02/17 05:00:22;;;;;;;0.87;0.50;;;;;;;10.43;100.00;154038.09;5086923;28;20436;-79
2022/02/17 05:03:04;;;;;;;0.60;0.20;;;;;;;10.46;100.00;154045.81;5092280;28;20958;-79
2022/02/17 05:05:50;;;;;;;0.67;0.33;;;;;;;10.45;100.00;154041.94;5089782;28;20460;-80
2022/02/17 05:08:28;;;;;;;0.90;0.43;;;;;;;10.46;100.00;154045.81;5093316;28;20444;-80
2022/02/17 05:11:04;;;;;;;0.60;0.20;;;;;;;10.47;100.00;154048.41;5089108;28;20479;-79
2022/02/17 05:13:40;;;;;;;0.60;0.20;;;;;;;10.52;100.00;154060.06;5089055;28;20450;-79
2022/02/17 05:16:23;;;;;;;1.27;0.20;;;;;;;10.53;100.00;154062.66;5091346;28;20452;-80
2022/02/17 05:18:58;;;;;;;0.60;0.20;;;;;;;10.56;100.00;154071.75;5093986;28;20436;-80
2022/02/17 05:21:49;;;;;;;0.70;0.20;;;;;;;10.54;100.00;154066.53;5094261;28;20456;-80
2022/02/17 05:24:44;;;;;;;0.60;0.20;;;;;;;10.49;100.00;154053.59;5106405;28;20462;-80
2022/02/17 05:27:42;;;;;;;0.60;0.20;;;;;;;10.48;100.00;154051.03;5093363;28;20615;-80
2022/02/17 05:30:25;;;;;;;0.70;0.23;;;;;;;10.51;100.00;154058.75;5087596;28;20460;-80
2022/02/17 05:33:20;;;;;;;0.60;0.20;;;;;;;10.51;100.00;154058.75;5104550;28;20572;-80
2022/02/17 05:36:16;;;;;;;0.83;0.30;;;;;;;10.53;100.00;154063.97;5099672;28;20491;-80
2022/02/17 05:39:11;;;;;;;0.80;0.30;;;;;;;10.50;100.00;154056.19;5108711;28;20440;-80
2022/02/17 05:41:59;;;;;;;0.80;0.30;;;;;;;10.51;100.00;154057.50;5108279;28;20443;-79
2022/02/17 05:44:35;;;;;;;2.80;0.40;;;;;;;10.49;100.00;154053.59;5100565;28;20516;-80
2022/02/17 05:47:10;;;;;;;0.80;0.30;;;;;;;10.55;100.00;154067.84;5103414;28;20445;-80
2022/02/17 05:49:47;;;;;;;0.90;0.30;;;;;;;10.54;100.00;154065.28;5090541;28;20456;-80
2022/02/17 05:52:23;;;;;;;0.60;0.20;;;;;;;10.59;100.00;154078.22;5102388;28;20497;-80
2022/02/17 05:54:59;;;;;;;0.70;0.20;;;;;;;10.60;100.00;154082.06;5091331;28;20488;-80
2022/02/17 05:57:34;;;;;;;1.30;0.40;;;;;;;10.54;100.00;154066.53;5104168;28;20436;-80
2022/02/17 06:00:11;;;;;;;1.47;0.40;;;;;;;10.57;100.00;154074.31;5106421;28;20439;-80
2022/02/17 06:02:49;;;;;;;0.90;0.40;;;;;;;10.49;100.00;154053.59;5100561;28;20951;-79
2022/02/17 06:05:27;;;;;;;3.10;1.70;;;;;;;10.48;100.00;154049.72;5106284;28;20776;-81
2022/02/17 06:08:05;;;;;;;0.70;0.30;;;;;;;10.47;100.00;154047.13;5090441;28;20451;-81
2022/02/17 06:10:43;;;;;;;2.20;0.87;;;;;;;10.45;100.00;154043.25;5108774;27;20467;-79
2022/02/17 06:13:19;;;;;;;1.10;0.80;;;;;;;10.49;100.00;154053.59;5103366;28;20436;-80
2022/02/17 06:16:09;;;;;;;2.20;0.63;;;;;;;10.49;100.00;154052.28;5105932;28;20463;-80
2022/02/17 06:18:45;;;;;;;1.47;0.50;;;;;;;10.46;100.00;154044.56;5111385;28;20447;-80
2022/02/17 06:21:23;;;;;;;3.37;0.67;;;;;;;10.47;100.00;154048.41;5101200;28;20493;-80
2022/02/17 06:23:58;;;;;;;2.63;1.23;;;;;;;10.44;100.00;154039.34;5122381;27;20540;-80
2022/02/17 06:26:34;;;;;;;3.17;1.23;;;;;;;10.42;100.00;154034.16;5105862;28;20543;-80
2022/02/17 06:29:09;;;;;;;2.20;1.13;;;;;;;10.35;100.00;154017.38;5089713;28;20440;-80
2022/02/17 06:31:45;;;;;;;4.17;0.97;;;;;;;10.34;100.00;154014.75;5103612;28;20490;-81
2022/02/17 06:34:23;;;;;;;1.27;0.60;;;;;;;10.27;100.00;153996.66;5091213;28;20539;-81
2022/02/17 06:37:00;;;;;;;2.67;0.87;;;;;;;10.25;100.00;153991.44;5089365;28;20525;-80
2022/02/17 06:39:35;;;;;;;3.53;0.87;;;;;;;10.19;100.00;153977.19;5104491;28;20509;-80
2022/02/17 06:42:11;;;;;;;2.33;1.00;;;;;;;10.12;100.00;153957.72;5119244;27;20476;-80
2022/02/17 06:44:46;;;;;;;1.73;0.83;;;;;;;10.12;100.00;153957.72;5092078;28;20577;-80
2022/02/17 06:47:22;;;;;;;1.27;0.67;;;;;;;10.12;100.00;153957.72;5107363;28;20443;-80
2022/02/17 06:49:58;;;;;;;2.30;1.57;;;;;;;10.13;100.00;153961.69;5104972;28;20823;-81
2022/02/17 06:52:35;;;;;;;1.47;0.73;;;;;;;10.11;100.00;153955.19;5102548;28;20483;-81
2022/02/17 06:55:12;;;;;;;2.77;1.20;;;;;;;10.11;99.86;153955.19;5071432;28;21041;-81
2022/02/17 06:57:48;;;;;;;4.30;1.13;;;;;;;10.08;98.80;153947.41;5084499;28;20452;-80
2022/02/17 07:00:23;;;;;;;3.23;1.30;;;;;;;10.05;100.00;153939.63;5099364;28;20448;-80
2022/02/17 07:02:59;;;;;;;4.07;1.10;;;;;;;10.07;99.54;153944.81;5102243;28;20448;-80
2022/02/17 07:05:36;;;;;;;7.13;1.20;;;;;;;10.01;96.93;153929.25;5099074;28;20431;-80
2022/02/17 07:08:13;;;;;;;3.73;1.00;;;;;;;10.11;99.78;153956.44;5085817;28;20448;-80
2022/02/17 07:10:59;;;;;;;6.67;1.60;;;;;;;10.15;96.63;153966.88;5103394;28;20468;-80
2022/02/17 07:13:35;;;;;;;2.80;1.20;;;;;;;10.24;97.84;153988.88;5087433;28;20977;-80
2022/02/17 07:16:10;;;;;;;6.47;1.60;;;;;;;10.34;96.57;154014.75;5121955;27;20432;-80
2022/02/17 07:18:46;;;;;;;2.50;1.80;;;;;;;10.42;94.46;154035.47;5097973;28;20440;-80
2022/02/17 07:21:23;;;;;;;3.60;0.97;;;;;;;10.43;96.66;154036.78;5084404;28;20453;-81
2022/02/17 07:24:00;;;;;;;2.83;1.23;;;;;;;10.34;95.56;154014.75;5103452;28;20939;-81
2022/02/17 07:26:36;;;;;;;2.80;1.20;;;;;;;10.30;99.59;154005.69;5108627;28;20438;-80
2022/02/17 07:29:12;;;;;;;5.63;1.53;;;;;;;10.30;98.92;154005.69;5103974;28;20451;-80
2022/02/17 07:31:51;;;;;;;2.43;0.83;;;;;;;10.26;97.97;153994.03;5103379;28;20978;-80
2022/02/17 07:34:27;;;;;;;1.50;0.87;;;;;;;10.26;98.92;153994.03;5099668;28;20476;-80
2022/02/17 07:37:02;;;;;;;2.80;1.00;;;;;;;10.27;100.00;153996.66;5105177;27;20440;-81
2022/02/17 07:39:39;;;;;;;2.63;1.60;;;;;;;10.30;100.00;154004.38;5100255;28;20528;-80
2022/02/17 07:42:16;;;;;;;3.30;1.20;;;;;;;10.24;100.00;153990.19;5091253;28;20958;-80
2022/02/17 07:44:52;;;;;;;2.90;1.00;;;;;;;10.17;100.00;153972.03;5102503;28;20445;-80
2022/02/17 07:47:28;;;;;;;3.60;1.20;;;;;;;10.22;99.92;153984.97;5103271;28;20531;-80
2022/02/17 07:50:05;;;;;;;4.03;1.37;;;;;;;10.22;96.67;153983.66;5090288;28;20448;-80
2022/02/17 07:52:40;;;;;;;5.33;1.33;;;;;;;10.24;98.23;153988.88;5101109;28;20536;-80
2022/02/17 07:55:21;;;;;;;5.60;1.07;;;;;;;10.23;98.40;153986.28;5107629;28;20439;-81
2022/02/17 07:58:01;;;;;;;4.30;1.37;;;;;;;10.34;96.92;154014.75;5082309;28;20488;-80
2022/02/17 08:00:37;;;;;;;4.00;1.33;;;;;;;10.29;96.36;154003.13;5103591;28;20760;-80
2022/02/17 08:03:13;;;;;;;4.23;1.30;;;;;;;10.30;94.53;154004.38;5085784;28;20460;-80
2022/02/17 08:05:49;;;;;;;3.50;1.73;;;;;;;10.32;94.15;154009.59;5102792;28;20487;-80
2022/02/17 08:08:25;;;;;;;6.50;1.37;;;;;;;10.42;91.25;154034.16;5099606;28;20445;-81
2022/02/17 08:11:02;;;;;;;1.90;1.10;;;;;;;10.69;89.39;154104.09;5103479;28;20467;-80
2022/02/17 08:13:38;;;;;;;4.10;1.07;;;;;;;10.97;87.11;154177.91;5119377;27;20447;-80
2022/02/17 08:16:13;;;;;;;7.43;2.10;;;;;;;11.09;85.17;154207.72;5091174;28;20440;-80
2022/02/17 08:18:49;;;;;;;3.37;1.90;;;;;;;10.91;86.88;154162.34;5090578;28;20456;-80
2022/02/17 08:21:24;;;;;;;3.77;1.13;;;;;;;11.04;85.06;154193.47;5089165;28;20661;-80
2022/02/17 08:24:00;;;;;;;3.97;1.53;;;;;;;10.99;86.23;154183.09;5100965;28;20547;-80
2022/02/17 08:26:37;;;;;;;4.07;1.00;;;;;;;11.04;85.61;154193.47;5105102;28;20457;-80
2022/02/17 08:29:13;;;;;;;3.53;1.50;;;;;;;11.17;83.79;154227.16;5090920;28;20439;-81
2022/02/17 08:31:49;;;;;;;4.03;1.70;;;;;;;11.22;80.88;154241.41;5097891;28;20536;-80
2022/02/17 08:34:25;;;;;;;3.40;1.70;;;;;;;11.20;82.52;154236.19;5096519;28;20444;-80
2022/02/17 08:37:01;;;;;;;6.77;2.07;;;;;;;11.11;81.64;154212.88;5096882;28;20483;-80
2022/02/17 08:39:37;;;;;;;4.23;1.40;;;;;;;11.14;78.97;154220.66;5088270;28;20460;-80
2022/02/17 08:42:15;;;;;;;5.17;1.90;;;;;;;11.19;81.06;154232.31;5089766;28;20783;-80
2022/02/17 08:44:50;;;;;;;5.47;1.73;;;;;;;11.19;79.04;154233.63;5118850;28;20447;-80
2022/02/17 08:47:28;;;;;;;4.00;1.50;;;;;;;11.21;77.51;154237.47;5101933;28;20447;-79
2022/02/17 08:50:03;;;;;;;5.27;1.93;;;;;;;10.97;78.33;154177.91;5100753;28;20442;-80
2022/02/17 08:52:39;;;;;;;5.37;1.60;;;;;;;11.00;82.01;154184.38;5104359;28;20569;-79
2022/02/17 08:55:15;;;;;;;3.43;2.00;;;;;;;11.01;79.57;154188.25;5099913;28;20444;-79
2022/02/17 08:57:53;;;;;;;4.00;1.70;;;;;;;11.19;77.54;154233.63;5089923;28;20439;-79
2022/02/17 09:00:29;;;;;;;6.33;1.33;;;;;;;11.22;76.28;154241.41;5106757;28;20549;-80
2022/02/17 09:03:06;;;;;;;9.67;1.90;;;;;;;11.11;77.59;154211.59;5101612;28;20456;-79
2022/02/17 09:05:42;;;;;;;3.93;1.20;;;;;;;11.07;76.01;154202.50;5109251;28;20768;-79
2022/02/17 09:08:17;;;;;;;6.07;1.87;;;;;;;11.16;74.09;154225.84;5106892;28;20539;-79
2022/02/17 09:10:53;;;;;;;2.70;1.10;;;;;;;11.14;74.98;154219.38;5106942;28;20468;-80
2022/02/17 09:13:31;;;;;;;3.80;1.60;;;;;;;11.23;77.33;154242.66;5106701;28;20539;-79
2022/02/17 09:16:06;;;;;;;6.70;2.73;;;;;;;11.19;75.01;154232.31;5107623;27;20493;-79
2022/02/17 09:18:42;;;;;;;4.43;1.73;;;;;;;11.09;75.37;154206.41;5104264;28;20444;-79
2022/02/17 09:21:18;;;;;;;7.93;1.80;;;;;;;11.18;77.08;154229.72;5106213;27;20516;-79
2022/02/17 09:23:53;;;;;;;7.17;2.17;;;;;;;11.10;70.57;154210.28;5109433;28;20486;-79
2022/02/17 09:26:30;;;;;;;4.80;1.87;;;;;;;11.16;71.88;154225.84;5108270;28;20436;-79
2022/02/17 09:29:08;;;;;;;3.17;1.40;;;;;;;11.21;73.16;154238.78;5105798;28;20468;-79
2022/02/17 09:31:43;;;;;;;4.97;1.53;;;;;;;11.18;67.08;154229.72;5104034;28;20460;-80
2022/02/17 09:34:19;;;;;;;3.37;1.83;;;;;;;11.20;66.28;154234.94;5102410;28;20452;-80
2022/02/17 09:36:55;;;;;;;6.73;2.17;;;;;;;11.24;67.44;154245.25;5100437;28;20428;-79
2022/02/17 09:39:33;;;;;;;6.90;2.00;;;;;;;11.25;65.31;154247.88;5091134;28;20487;-80
2022/02/17 09:42:08;;;;;;;5.03;2.10;;;;;;;11.29;66.90;154258.22;5107109;28;20433;-79
2022/02/17 09:44:46;;;;;;;5.60;1.70;;;;;;;11.26;67.62;154250.44;5107985;28;20966;-79
2022/02/17 09:47:23;;;;;;;4.47;1.87;;;;;;;11.23;67.75;154243.97;5106270;28;20480;-80
2022/02/17 09:49:59;;;;;;;4.53;1.70;;;;;;;11.24;63.85;154246.56;5102020;28;20440;-80
2022/02/17 09:52:35;;;;;;;6.77;1.90;;;;;;;11.22;64.93;154241.41;5106423;28;20456;-80
2022/02/17 09:55:12;;;;;;;7.07;2.03;;;;;;;11.13;70.00;154218.06;5085272;28;20933;-79
2022/02/17 09:57:48;;;;;;;4.40;2.03;;;;;;;11.00;66.26;154184.38;5103524;28;20840;-79
2022/02/17 10:00:25;;;;;;;13.57;2.37;;;;;;;10.96;67.91;154175.31;5102843;28;20479;-80
2022/02/17 10:03:19;;;;;;;3.60;1.70;;;;;;;10.96;65.24;154174.06;5108756;28;20454;-79
2022/02/17 10:06:05;;;;;;;6.70;1.83;;;;;;;11.04;70.20;154193.47;5104442;28;20857;-79
2022/02/17 10:08:43;;;;;;;10.47;2.27;;;;;;;11.02;70.73;154189.56;5092499;28;20765;-80
2022/02/17 10:11:29;;;;;;;3.20;1.30;;;;;;;11.05;74.10;154196.03;5108293;28;20452;-80
2022/02/17 10:14:06;;;;;;;5.27;2.07;;;;;;;11.12;73.70;154215.44;5099141;28;20441;-80
2022/02/17 10:16:59;;;;;;;7.73;1.93;;;;;;;11.11;71.54;154211.59;5107481;28;20439;-80
2022/02/17 10:19:36;;;;;;;5.07;2.30;;;;;;;11.08;71.28;154205.13;5090953;28;20475;-79
2022/02/17 10:22:12;;;;;;;6.50;2.20;;;;;;;11.10;72.23;154208.97;5106226;28;20444;-80
2022/02/17 10:24:49;;;;;;;5.03;1.50;;;;;;;11.04;72.16;154194.72;5090538;28;20459;-80
2022/02/17 10:27:26;;;;;;;9.20;2.20;;;;;;;11.01;73.88;154188.25;5106620;28;20476;-79
2022/02/17 10:30:07;;;;;;;4.77;1.93;;;;;;;10.93;76.42;154167.53;5104587;28;20567;-79
2022/02/17 10:32:55;;;;;;;5.37;1.73;;;;;;;11.03;72.14;154192.16;5090050;28;20465;-79
2022/02/17 10:35:32;;;;;;;6.00;1.47;;;;;;;11.02;73.03;154189.56;5122783;27;20768;-80
2022/02/17 10:38:07;;;;;;;6.80;2.33;;;;;;;10.93;75.08;154167.53;5102235;27;20436;-79
2022/02/17 10:40:43;;;;;;;8.83;3.30;;;;;;;10.97;76.13;154177.91;5099624;28;21054;-79
2022/02/17 10:43:19;;;;;;;7.60;2.53;;;;;;;10.87;71.27;154152.03;5104771;28;20479;-79
2022/02/17 10:45:55;;;;;;;10.23;1.87;;;;;;;10.85;71.97;154146.84;5086515;28;20514;-80
2022/02/17 10:48:35;;;;;;;5.70;2.43;;;;;;;10.83;70.95;154141.63;5089020;28;20499;-79
2022/02/17 10:51:12;;;;;;;10.23;3.50;;;;;;;10.64;75.88;154092.47;5102009;28;20464;-79
2022/02/17 10:53:58;;;;;;;7.30;2.50;;;;;;;10.66;72.33;154097.63;5105023;28;20459;-80
2022/02/17 10:56:34;;;;;;;6.77;1.90;;;;;;;10.61;73.04;154083.38;5105314;28;20444;-79
2022/02/17 11:00:00;;;;;;;7.10;2.73;;;;;;;10.56;72.58;154070.44;5089709;28;20939;-79
2022/02/17 11:02:11;;;;;;;4.27;1.77;;;;;;;10.56;72.94;154071.75;5106419;28;20923;-79
2022/02/17 11:04:48;;;;;;;4.97;1.60;;;;;;;10.63;72.05;154089.84;5100209;28;20437;-80
2022/02/17 11:07:24;;;;;;;5.77;2.27;;;;;;;10.68;70.76;154102.78;5105596;28;20471;-79
2022/02/17 11:10:00;;;;;;;5.07;1.97;;;;;;;10.65;72.27;154093.72;5086753;28;20447;-80
2022/02/17 11:12:37;;;;;;;4.83;2.40;;;;;;;10.76;73.69;154122.22;5089439;28;20467;-80
2022/02/17 11:15:13;;;;;;;4.77;1.87;;;;;;;10.74;74.09;154117.03;5102812;28;20444;-80
2022/02/17 11:17:48;;;;;;;5.03;1.60;;;;;;;10.81;70.94;154136.47;5085848;28;20448;-79
2022/02/17 11:20:29;;;;;;;2.93;1.43;;;;;;;10.90;71.03;154159.78;5092943;28;20468;-79
2022/02/17 11:23:04;;;;;;;6.90;1.77;;;;;;;11.02;69.14;154189.56;5081980;28;20440;-80
2022/02/17 11:25:41;;;;;;;7.30;2.10;;;;;;;11.10;65.54;154210.28;5090109;28;20439;-80
2022/02/17 11:28:17;;;;;;;5.23;2.30;;;;;;;11.13;67.07;154216.75;5087214;28;20923;-80
2022/02/17 11:30:57;;;;;;;5.93;1.93;;;;;;;11.08;63.36;154203.81;5102883;28;20531;-80
2022/02/17 11:33:35;;;;;;;6.90;2.17;;;;;;;11.04;63.14;154193.47;5104561;28;20527;-79
2022/02/17 11:36:32;;;;;;;4.97;1.67;;;;;;;10.90;65.83;154158.50;5104901;28;20946;-80
2022/02/17 11:39:10;;;;;;;7.00;2.40;;;;;;;10.84;65.63;154142.94;5104963;28;20456;-80
2022/02/17 11:41:46;;;;;;;5.70;2.33;;;;;;;10.81;62.22;154136.47;5090045;28;20444;-80
2022/02/17 11:44:23;;;;;;;3.80;1.80;;;;;;;10.72;63.44;154111.88;5092450;28;20513;-79
2022/02/17 11:47:05;;;;;;;3.43;1.90;;;;;;;10.68;66.36;154102.78;5099622;28;20453;-80
2022/02/17 11:49:49;;;;;;;8.30;2.50;;;;;;;10.64;65.15;154092.47;5102472;28;20914;-80
2022/02/17 11:52:26;;;;;;;5.57;2.30;;;;;;;10.73;65.26;154115.75;5103046;28;20547;-80
2022/02/17 11:55:24;;;;;;;5.90;2.10;;;;;;;10.69;64.29;154105.41;5104830;28;20477;-80
2022/02/17 11:57:59;;;;;;;2.67;1.57;;;;;;;10.66;69.70;154097.63;5086628;28;20448;-79
2022/02/17 12:00:35;;;;;;;6.73;3.03;;;;;;;10.66;67.26;154097.63;5098056;28;20471;-79
2022/02/17 12:03:11;;;;;;;7.63;2.10;;;;;;;10.65;64.19;154095.03;5104579;28;20770;-79
2022/02/17 12:05:47;;;;;;;7.13;2.40;;;;;;;10.58;65.87;154076.91;5100876;28;20432;-80
2022/02/17 12:08:24;;;;;;;9.50;2.33;;;;;;;10.63;67.27;154089.84;5105535;28;20440;-81
2022/02/17 12:11:28;;;;;;;9.00;2.70;;;;;;;10.56;67.72;154070.44;5104764;28;20547;-80
2022/02/17 12:14:07;;;;;;;9.50;3.53;;;;;;;10.56;69.46;154070.44;5104315;28;20452;-80
2022/02/17 12:16:43;;;;;;;7.17;3.20;;;;;;;10.67;64.37;154100.19;5103911;28;20466;-80